Time;durP1;ratioP1;P1;durP2;ratioP2;P2;SDS_P1;SDS_P2;PMS_P1;PMS_P2;Temp;Humidity;BMP_temperature;BMP_pressure;BME280_temperature;BME280_humidity;BME280_pressure;Samples;Min_cycle;Max_cycle;Signal;HPM_P1;HPM_P2
2022/04/13 00:00:28;;;;;;;6.75;3.10;;;15.30;62.80;;;;;;4924406;29;20035;-87
2022/04/13 00:02:55;;;;;;;8.68;2.75;;;15.30;62.80;;;;;;4927212;29;20306;-86
2022/04/13 00:05:21;;;;;;;5.72;2.40;;;15.30;62.90;;;;;;4920142;29;20505;-86
2022/04/13 00:07:47;;;;;;;5.35;2.67;;;15.30;62.90;;;;;;4926712;29;20119;-86
2022/04/13 00:10:13;;;;;;;5.80;2.33;;;15.30;63.00;;;;;;4928358;29;20094;-87
2022/04/13 00:12:39;;;;;;;5.68;3.00;;;15.30;63.00;;;;;;4926638;29;20087;-87
2022/04/13 00:15:06;;;;;;;4.82;2.50;;;15.30;63.00;;;;;;4930596;29;20098;-86
2022/04/13 00:17:32;;;;;;;6.15;2.63;;;15.30;63.10;;;;;;4932288;29;20067;-85
2022/04/13 00:19:59;;;;;;;8.90;3.42;;;15.20;62.90;;;;;;4934097;29;20482;-86
2022/04/13 00:22:25;;;;;;;6.45;3.00;;;15.30;63.20;;;;;;4934253;29;20031;-86
2022/04/13 00:24:51;;;;;;;8.77;3.30;;;15.20;63.00;;;;;;4931451;29;20081;-88
2022/04/13 00:27:16;;;;;;;5.50;2.90;;;15.30;63.20;;;;;;4930700;29;20040;-86
2022/04/13 00:29:44;;;;;;;5.70;2.78;;;15.20;63.00;;;;;;4932125;29;20031;-86
2022/04/13 00:32:10;;;;;;;5.65;2.33;;;15.20;63.10;;;;;;4930840;29;20058;-86
2022/04/13 00:34:36;;;;;;;5.13;2.25;;;15.20;63.10;;;;;;4932025;29;20503;-85
2022/04/13 00:37:02;;;;;;;5.93;2.63;;;15.20;63.20;;;;;;4929645;29;20069;-85
2022/04/13 00:39:28;;;;;;;8.85;2.42;;;15.20;63.20;;;;;;4927249;29;20044;-85
2022/04/13 00:41:58;;;;;;;6.20;3.05;;;15.20;63.30;;;;;;4924757;29;20495;-85
2022/04/13 00:44:27;;;;;;;4.60;2.88;;;15.20;63.40;;;;;;4927544;29;20083;-86
2022/04/13 00:46:54;;;;;;;7.43;3.15;;;15.20;63.40;;;;;;4929237;29;20483;-85
2022/04/13 00:49:20;;;;;;;7.18;2.92;;;15.10;63.20;;;;;;4931714;29;20491;-86
2022/04/13 00:51:46;;;;;;;8.35;2.47;;;15.20;63.40;;;;;;4930286;29;20526;-86
2022/04/13 00:54:13;;;;;;;3.65;2.10;;;15.10;63.30;;;;;;4931304;29;20073;-86
2022/04/13 00:56:41;;;;;;;10.32;4.18;;;15.10;63.30;;;;;;4929475;29;20127;-86
2022/04/13 00:59:12;;;;;;;5.60;2.50;;;15.10;63.40;;;;;;4928123;29;20039;-85
2022/04/13 01:01:40;;;;;;;5.95;2.40;;;15.10;63.40;;;;;;4931245;29;20040;-86
2022/04/13 01:04:10;;;;;;;6.88;2.53;;;15.10;63.40;;;;;;4929122;29;20035;-85
2022/04/13 01:06:37;;;;;;;4.13;2.17;;;15.10;63.50;;;;;;4925963;29;20600;-86
2022/04/13 01:09:04;;;;;;;7.72;2.88;;;15.10;63.50;;;;;;4926686;29;20113;-84
2022/04/13 01:11:30;;;;;;;8.88;3.47;;;15.10;63.60;;;;;;4928479;29;20887;-85
2022/04/13 01:13:57;;;;;;;5.55;2.38;;;15.00;63.40;;;;;;4929525;29;20047;-86
2022/04/13 01:16:24;;;;;;;5.05;2.30;;;15.00;63.50;;;;;;4911719;29;20100;-86
2022/04/13 01:18:51;;;;;;;7.47;2.80;;;15.00;63.50;;;;;;4930557;29;20043;-87
2022/04/13 01:21:19;;;;;;;4.97;2.58;;;15.00;63.60;;;;;;4927920;29;20032;-88
2022/04/13 01:23:45;;;;;;;6.72;2.47;;;15.00;63.60;;;;;;4933129;29;20040;-86
2022/04/13 01:26:12;;;;;;;7.28;2.83;;;15.00;63.70;;;;;;4929899;29;20119;-86
2022/04/13 01:28:38;;;;;;;6.68;3.00;;;15.00;64.30;;;;;;4928225;29;20119;-86
2022/04/13 01:31:05;;;;;;;4.00;2.20;;;14.90;63.60;;;;;;4930010;29;20665;-86
2022/04/13 01:33:35;;;;;;;3.28;2.20;;;14.90;63.70;;;;;;4929471;29;20046;-85
2022/04/13 01:36:01;;;;;;;5.63;2.47;;;14.90;64.30;;;;;;4928311;29;20055;-88
2022/04/13 01:38:28;;;;;;;4.57;2.20;;;14.90;63.80;;;;;;4928448;29;20091;-88
2022/04/13 01:40:56;;;;;;;5.85;2.33;;;14.90;63.80;;;;;;4930153;29;20054;-90
2022/04/13 01:43:22;;;;;;;5.60;2.85;;;14.90;63.90;;;;;;4930496;29;20051;-86
2022/04/13 01:45:48;;;;;;;7.28;2.95;;;14.80;63.70;;;;;;4920089;29;20715;-86
2022/04/13 01:48:13;;;;;;;5.93;2.65;;;14.90;63.90;;;;;;4922323;29;20107;-87
2022/04/13 01:50:39;;;;;;;5.72;2.90;;;14.90;63.90;;;;;;4929009;29;20071;-86
2022/04/13 01:53:05;;;;;;;7.85;3.03;;;14.90;64.00;;;;;;4932080;29;20110;-88
2022/04/13 01:55:31;;;;;;;4.15;2.42;;;14.80;63.80;;;;;;4925847;29;20035;-88
2022/04/13 01:57:57;;;;;;;4.68;2.60;;;14.80;63.90;;;;;;4930005;29;20411;-87
2022/04/13 02:00:23;;;;;;;6.10;3.05;;;14.80;63.90;;;;;;4932714;29;20042;-87
2022/04/13 02:02:49;;;;;;;5.05;2.67;;;14.80;63.90;;;;;;4929718;29;20326;-88
2022/04/13 02:05:15;;;;;;;5.43;2.70;;;14.80;64.00;;;;;;4932238;29;20032;-87
2022/04/13 02:07:41;;;;;;;6.97;2.55;;;14.80;64.00;;;;;;4932332;29;20036;-87
2022/04/13 02:10:09;;;;;;;4.20;2.13;;;14.80;64.10;;;;;;4931229;29;20467;-87
2022/04/13 02:12:36;;;;;;;5.32;2.47;;;14.80;64.10;;;;;;4929984;29;20041;-87
2022/04/13 02:15:03;;;;;;;5.55;2.65;;;14.70;64.00;;;;;;4932659;29;20245;-88
2022/04/13 02:17:29;;;;;;;8.13;2.63;;;14.70;64.00;;;;;;4930755;29;20569;-87
2022/04/13 02:19:55;;;;;;;4.28;2.78;;;14.70;64.10;;;;;;4926146;29;20123;-87
2022/04/13 02:22:21;;;;;;;6.93;2.92;;;14.70;64.10;;;;;;4931710;29;20031;-87
2022/04/13 02:24:47;;;;;;;5.10;3.30;;;14.70;64.10;;;;;;4908025;29;20028;-88
2022/04/13 02:27:13;;;;;;;6.00;2.72;;;14.70;64.20;;;;;;4924486;29;20035;-89
2022/04/13 02:29:40;;;;;;;7.22;3.33;;;14.70;64.20;;;;;;4921813;29;20440;-87
2022/04/13 02:32:06;;;;;;;4.38;2.38;;;14.70;64.30;;;;;;4932421;29;20042;-86
2022/04/13 02:34:32;;;;;;;5.35;2.67;;;14.70;64.30;;;;;;4930692;29;20046;-86
2022/04/13 02:36:59;;;;;;;4.00;2.53;;;14.60;64.20;;;;;;4945891;29;20054;-86
2022/04/13 02:39:25;;;;;;;7.35;3.38;;;14.60;64.20;;;;;;4921812;29;20059;-85
2022/04/13 02:41:51;;;;;;;4.70;2.10;;;14.60;64.20;;;;;;4930212;29;20035;-85
2022/04/13 02:44:17;;;;;;;4.50;2.70;;;14.60;64.30;;;;;;4921139;29;20043;-84
2022/04/13 02:46:44;;;;;;;6.07;2.85;;;14.60;64.30;;;;;;4929190;29;20094;-87
2022/04/13 02:49:11;;;;;;;6.80;2.67;;;14.60;64.40;;;;;;4931810;29;20032;-85
2022/04/13 02:51:37;;;;;;;5.50;2.85;;;14.50;64.20;;;;;;4928279;29;20040;-85
2022/04/13 02:54:03;;;;;;;6.50;2.80;;;14.60;64.50;;;;;;4929578;29;20032;-86
2022/04/13 02:56:29;;;;;;;7.95;3.75;;;14.50;64.30;;;;;;4924165;29;20039;-86
2022/04/13 02:58:55;;;;;;;4.90;2.60;;;14.60;64.50;;;;;;4944708;29;20035;-86
2022/04/13 03:01:21;;;;;;;3.92;2.28;;;14.60;64.50;;;;;;4929225;29;20119;-86
2022/04/13 03:03:47;;;;;;;3.72;2.45;;;14.60;64.50;;;;;;4930914;29;20032;-87
2022/04/13 03:06:13;;;;;;;4.25;3.20;;;14.60;64.50;;;;;;4919710;29;20372;-87
2022/04/13 03:08:39;;;;;;;10.43;4.28;;;14.60;65.10;;;;;;4923121;29;20136;-85
2022/04/13 03:11:07;;;;;;;6.80;2.72;;;14.60;64.60;;;;;;4924285;29;20101;-84
2022/04/13 03:13:33;;;;;;;5.70;2.80;;;14.60;64.60;;;;;;4931309;29;20023;-84
2022/04/13 03:15:59;;;;;;;12.93;3.90;;;14.60;64.60;;;;;;4925901;29;20035;-84
2022/04/13 03:18:28;;;;;;;8.68;3.17;;;14.60;64.60;;;;;;4922426;29;20036;-84
2022/04/13 03:20:54;;;;;;;8.02;3.50;;;14.60;64.60;;;;;;4930393;29;20042;-85
2022/04/13 03:23:20;;;;;;;8.35;3.13;;;14.60;64.60;;;;;;4937000;28;20036;-85
2022/04/13 03:25:48;;;;;;;8.90;2.53;;;14.50;64.50;;;;;;4934330;29;20042;-85
2022/04/13 03:28:14;;;;;;;7.10;2.92;;;14.60;64.70;;;;;;4922623;29;20087;-85
2022/04/13 03:30:40;;;;;;;8.88;3.20;;;14.50;64.50;;;;;;4931058;29;20047;-85
2022/04/13 03:33:06;;;;;;;4.88;2.60;;;14.50;64.50;;;;;;4931017;29;20027;-85
2022/04/13 03:35:32;;;;;;;7.07;3.35;;;14.50;64.60;;;;;;4936620;29;20498;-85
2022/04/13 03:37:58;;;;;;;5.53;2.80;;;14.50;64.60;;;;;;4935228;29;20049;-85
2022/04/13 03:40:24;;;;;;;6.93;2.38;;;14.50;64.70;;;;;;4940773;29;20052;-85
2022/04/13 03:42:52;;;;;;;6.53;3.38;;;14.50;64.70;;;;;;4948820;29;20035;-84
2022/04/13 03:45:18;;;;;;;6.32;2.83;;;14.50;64.70;;;;;;4955070;29;20099;-85
2022/04/13 03:47:44;;;;;;;5.50;2.72;;;14.50;64.80;;;;;;4935998;29;20111;-86
2022/04/13 03:50:12;;;;;;;6.50;2.85;;;14.50;64.80;;;;;;4933451;29;20036;-86
2022/04/13 03:52:38;;;;;;;6.30;2.65;;;14.50;64.90;;;;;;4932037;28;20032;-87
2022/04/13 03:55:06;;;;;;;6.18;2.55;;;14.50;64.90;;;;;;4924032;29;20411;-87
2022/04/13 03:57:32;;;;;;;4.65;2.85;;;14.50;64.90;;;;;;4925021;29;20134;-88
2022/04/13 03:59:58;;;;;;;4.05;2.70;;;14.50;64.90;;;;;;4927562;29;20028;-86
2022/04/13 04:02:24;;;;;;;3.95;2.90;;;14.50;64.90;;;;;;4930278;29;20036;-86
2022/04/13 04:04:50;;;;;;;6.30;4.05;;;14.50;64.90;;;;;;4931337;29;20334;-85
2022/04/13 04:07:16;;;;;;;4.82;2.67;;;14.40;64.80;;;;;;4930757;29;20059;-86
2022/04/13 04:09:43;;;;;;;5.85;2.40;;;14.50;65.00;;;;;;4913547;29;20177;-86
2022/04/13 04:12:10;;;;;;;5.22;2.55;;;14.50;65.00;;;;;;4924885;29;20050;-87
2022/04/13 04:14:36;;;;;;;5.35;2.83;;;14.50;65.00;;;;;;4931104;29;20075;-86
2022/04/13 04:17:02;;;;;;;5.18;2.47;;;14.50;65.10;;;;;;4930557;29;20036;-87
2022/04/13 04:19:28;;;;;;;7.55;3.60;;;14.40;64.90;;;;;;4930621;29;20114;-86
2022/04/13 04:21:55;;;;;;;7.78;3.38;;;14.50;65.10;;;;;;4910685;29;20396;-86
2022/04/13 04:24:21;;;;;;;6.10;3.30;;;14.40;64.90;;;;;;4931306;29;20035;-86
2022/04/13 04:26:47;;;;;;;6.88;2.10;;;14.50;65.10;;;;;;4928501;29;20042;-85
2022/04/13 04:29:13;;;;;;;4.30;2.45;;;14.50;65.10;;;;;;4930659;29;20451;-85
2022/04/13 04:31:53;;;;;;;4.95;2.35;;;14.40;65.00;;;;;;4929320;29;20138;-85
2022/04/13 04:34:21;;;;;;;4.38;2.50;;;14.40;65.00;;;;;;4922143;29;20031;-84
2022/04/13 04:36:47;;;;;;;4.57;2.53;;;14.40;65.00;;;;;;4945394;29;20028;-85
2022/04/13 04:39:13;;;;;;;3.85;2.17;;;14.40;65.00;;;;;;4929653;29;20064;-85
2022/04/13 04:41:43;;;;;;;6.72;2.70;;;14.40;65.10;;;;;;4928996;29;20043;-85
2022/04/13 04:44:09;;;;;;;6.20;3.03;;;14.40;65.10;;;;;;4938536;29;20039;-84
2022/04/13 04:46:36;;;;;;;5.88;2.78;;;14.40;65.20;;;;;;4944505;29;20026;-85
2022/04/13 04:49:04;;;;;;;3.38;2.00;;;14.40;65.30;;;;;;4928773;29;20123;-85
2022/04/13 04:51:33;;;;;;;4.97;2.20;;;14.40;65.30;;;;;;4933394;29;20032;-86
2022/04/13 04:54:00;;;;;;;6.50;3.65;;;14.40;65.30;;;;;;4934082;29;20027;-86
2022/04/13 04:56:26;;;;;;;4.60;2.30;;;14.40;65.40;;;;;;4917511;29;20028;-86
2022/04/13 04:58:52;;;;;;;4.90;2.30;;;14.40;65.40;;;;;;4938441;29;20047;-87
2022/04/13 05:01:18;;;;;;;5.82;2.50;;;14.40;65.40;;;;;;4944428;28;20026;-86
2022/04/13 05:03:48;;;;;;;3.92;2.00;;;14.40;65.50;;;;;;4926518;29;20028;-87
2022/04/13 05:06:22;;;;;;;3.00;2.00;;;14.40;65.50;;;;;;4926491;29;20364;-88
2022/04/13 05:08:49;;;;;;;4.72;2.03;;;14.40;65.60;;;;;;4925782;28;20025;-87
2022/04/13 05:11:15;;;;;;;6.07;2.55;;;14.40;65.60;;;;;;4912715;29;20127;-87
2022/04/13 05:13:45;;;;;;;4.45;2.13;;;14.40;65.60;;;;;;4907239;29;20060;-87
2022/04/13 05:16:13;;;;;;;3.53;2.00;;;14.40;65.70;;;;;;4926852;29;20050;-86
2022/04/13 05:18:39;;;;;;;4.85;2.40;;;14.40;65.70;;;;;;4928024;29;20474;-88
2022/04/13 05:21:05;;;;;;;5.38;2.47;;;14.40;65.70;;;;;;4913312;29;20031;-90
2022/04/13 05:23:31;;;;;;;4.07;2.13;;;14.40;65.70;;;;;;4930952;29;20075;-87
2022/04/13 05:25:57;;;;;;;6.97;2.47;;;14.40;65.70;;;;;;4928776;29;20431;-82
2022/04/13 05:28:23;;;;;;;4.20;2.45;;;14.40;65.70;;;;;;4927665;29;20123;-80
2022/04/13 05:30:49;;;;;;;5.75;2.20;;;14.40;65.80;;;;;;4926592;29;20028;-82
2022/04/13 05:33:15;;;;;;;4.53;2.78;;;14.40;65.80;;;;;;4909227;29;20135;-79
2022/04/13 05:35:41;;;;;;;6.28;2.63;;;14.40;65.80;;;;;;4926273;29;20040;-80
2022/04/13 05:38:07;;;;;;;6.07;3.25;;;14.40;65.80;;;;;;4923889;29;20793;-81
2022/04/13 05:40:33;;;;;;;5.28;3.05;;;14.40;65.80;;;;;;4942563;29;20062;-81
2022/04/13 05:43:04;;;;;;;6.32;2.22;;;14.40;65.80;;;;;;4951587;29;20036;-80
2022/04/13 05:45:30;;;;;;;5.75;2.85;;;14.40;65.80;;;;;;4936759;29;20111;-82
2022/04/13 05:47:57;;;;;;;5.72;2.63;;;14.40;65.80;;;;;;4948012;28;20342;-81
2022/04/13 05:50:23;;;;;;;5.47;2.83;;;14.40;65.80;;;;;;4950549;28;20039;-79
2022/04/13 05:52:49;;;;;;;8.55;3.63;;;14.50;66.60;;;;;;4943015;29;20047;-81
2022/04/13 05:55:15;;;;;;;3.78;2.28;;;14.40;65.80;;;;;;4950352;29;20106;-79
2022/04/13 05:57:41;;;;;;;8.60;4.88;;;14.50;66.00;;;;;;4951419;29;20036;-78
2022/04/13 06:00:10;;;;;;;4.68;2.58;;;14.50;66.00;;;;;;4941812;29;20131;-79
2022/04/13 06:02:37;;;;;;;7.35;3.88;;;14.50;66.00;;;;;;4930925;29;20474;-76
2022/04/13 06:05:04;;;;;;;3.90;2.42;;;14.50;65.90;;;;;;4932094;29;20059;-80
2022/04/13 06:07:30;;;;;;;8.95;3.58;;;14.60;66.10;;;;;;4924192;29;20118;-79
2022/04/13 06:10:01;;;;;;;5.88;3.05;;;14.60;66.10;;;;;;4941221;29;20119;-79
2022/04/13 06:12:27;;;;;;;4.75;3.22;;;14.60;66.00;;;;;;4928870;29;20087;-79
2022/04/13 06:15:18;;;;;;;6.22;2.75;;;14.70;66.10;;;;;;4928470;29;20031;-77
2022/04/13 06:17:44;;;;;;;6.47;2.80;;;14.70;66.20;;;;;;4929217;29;20044;-79
2022/04/13 06:20:10;;;;;;;7.28;2.38;;;14.80;66.10;;;;;;4944182;28;20039;-79
2022/04/13 06:22:41;;;;;;;6.25;2.72;;;14.80;66.00;;;;;;4933635;29;20044;-80
2022/04/13 06:25:08;;;;;;;5.20;3.15;;;14.90;66.10;;;;;;4930021;29;20377;-79
2022/04/13 06:27:35;;;;;;;6.80;2.97;;;15.00;66.10;;;;;;4924422;29;20032;-77
2022/04/13 06:30:01;;;;;;;7.47;3.08;;;15.10;66.10;;;;;;4925668;29;20043;-79
2022/04/13 06:32:38;;;;;;;8.70;2.40;;;15.30;66.20;;;;;;4927349;29;20081;-78
2022/04/13 06:35:05;;;;;;;4.85;2.72;;;15.50;66.40;;;;;;4929611;29;20062;-79
2022/04/13 06:37:31;;;;;;;3.88;2.38;;;15.80;66.30;;;;;;4929292;29;20047;-78
2022/04/13 06:39:57;;;;;;;3.83;2.00;;;16.10;65.90;;;;;;4929472;29;20435;-79
2022/04/13 06:42:23;;;;;;;4.82;2.05;;;16.30;65.70;;;;;;4927975;29;20238;-80
2022/04/13 06:44:52;;;;;;;6.00;2.28;;;16.40;65.60;;;;;;4928539;29;20039;-79
2022/04/13 06:47:18;;;;;;;4.95;2.08;;;16.50;65.50;;;;;;4928653;29;20039;-80
2022/04/13 06:49:46;;;;;;;4.60;2.40;;;16.50;65.40;;;;;;4928221;29;20035;-80
2022/04/13 06:52:13;;;;;;;4.32;2.15;;;16.50;65.30;;;;;;4911892;29;20030;-81
2022/04/13 06:54:48;;;;;;;9.20;3.30;;;16.50;65.30;;;;;;4925996;29;20035;-80
2022/04/13 06:57:15;;;;;;;5.80;2.35;;;16.60;65.50;;;;;;4927786;29;20099;-78
2022/04/13 06:59:41;;;;;;;5.40;2.45;;;16.60;65.50;;;;;;4928620;29;20036;-80
2022/04/13 07:02:10;;;;;;;5.72;2.38;;;16.50;65.30;;;;;;4923474;29;20102;-79
2022/04/13 07:04:40;;;;;;;4.65;2.28;;;16.60;65.40;;;;;;4925263;29;20031;-81
2022/04/13 07:07:06;;;;;;;5.15;2.53;;;16.60;65.40;;;;;;4926585;29;20035;-80
2022/04/13 07:09:34;;;;;;;7.45;3.03;;;16.60;65.30;;;;;;4930691;29;20043;-80
2022/04/13 07:12:00;;;;;;;4.95;1.92;;;16.70;65.40;;;;;;4931521;28;20028;-80
2022/04/13 07:14:26;;;;;;;9.00;3.22;;;16.70;65.30;;;;;;4927513;29;20043;-79
2022/04/13 07:16:52;;;;;;;3.15;2.08;;;16.70;65.20;;;;;;4926443;29;20028;-81
2022/04/13 07:19:18;;;;;;;3.70;2.30;;;16.80;65.30;;;;;;4926286;29;20031;-81
2022/04/13 07:21:44;;;;;;;5.70;2.47;;;16.90;65.40;;;;;;4928097;29;20086;-82
2022/04/13 07:24:10;;;;;;;4.13;1.95;;;16.90;65.30;;;;;;4927002;29;20126;-80
2022/04/13 07:26:37;;;;;;;4.63;2.60;;;16.90;65.20;;;;;;4939719;28;20450;-80
2022/04/13 07:29:03;;;;;;;4.32;2.28;;;16.90;65.10;;;;;;4926934;29;20075;-78
2022/04/13 07:31:29;;;;;;;3.95;2.10;;;16.80;65.00;;;;;;4923565;29;20036;-80
2022/04/13 07:33:56;;;;;;;4.97;2.13;;;16.90;65.10;;;;;;4924830;29;20053;-80
2022/04/13 07:36:23;;;;;;;5.47;2.63;;;16.90;65.10;;;;;;4928808;29;20522;-80
2022/04/13 07:38:52;;;;;;;5.18;2.10;;;16.90;65.10;;;;;;4928975;29;20083;-80
2022/04/13 07:41:18;;;;;;;5.55;2.13;;;16.90;65.10;;;;;;4922140;29;20034;-80
2022/04/13 07:43:44;;;;;;;4.78;2.08;;;16.90;65.10;;;;;;4923328;29;20415;-79
2022/04/13 07:46:11;;;;;;;6.05;2.00;;;16.90;65.00;;;;;;4927532;29;20040;-80
2022/04/13 07:48:37;;;;;;;6.70;2.40;;;16.90;65.00;;;;;;4925140;29;20146;-83
2022/04/13 07:51:03;;;;;;;4.63;1.98;;;16.90;65.00;;;;;;4931465;29;20095;-81
2022/04/13 07:53:29;;;;;;;6.32;2.35;;;17.00;65.10;;;;;;4951873;28;20023;-80
2022/04/13 07:55:55;;;;;;;8.50;3.03;;;17.00;65.00;;;;;;4942986;28;20068;-81
2022/04/13 07:58:21;;;;;;;6.75;2.58;;;17.00;64.90;;;;;;4951632;28;20040;-81
2022/04/13 08:00:47;;;;;;;5.95;2.60;;;17.10;65.00;;;;;;4961005;29;20028;-80
2022/04/13 08:03:13;;;;;;;4.72;2.78;;;17.20;65.00;;;;;;4946409;29;20043;-80
2022/04/13 08:05:40;;;;;;;5.05;1.75;;;17.30;65.00;;;;;;4942343;29;20062;-80
2022/04/13 08:08:06;;;;;;;4.80;2.10;;;17.40;64.90;;;;;;4921174;29;20031;-79
2022/04/13 08:10:32;;;;;;;4.18;2.30;;;17.50;64.90;;;;;;4928601;29;20106;-83
2022/04/13 08:12:58;;;;;;;4.82;2.30;;;17.70;64.90;;;;;;4925681;29;20032;-80
2022/04/13 08:15:24;;;;;;;3.80;1.75;;;17.80;64.80;;;;;;4919480;29;20039;-82
2022/04/13 08:17:50;;;;;;;5.07;2.22;;;17.80;64.70;;;;;;4924485;29;20348;-82
2022/04/13 08:20:16;;;;;;;6.10;2.10;;;17.90;64.70;;;;;;4921135;29;20038;-79
2022/04/13 08:22:43;;;;;;;3.83;2.08;;;17.90;64.60;;;;;;4929792;29;20219;-78
2022/04/13 08:25:10;;;;;;;5.60;2.55;;;18.00;64.60;;;;;;4923821;29;20035;-80
2022/04/13 08:27:36;;;;;;;7.22;2.88;;;18.10;64.60;;;;;;4940836;29;20458;-81
2022/04/13 08:30:03;;;;;;;3.35;1.85;;;18.20;64.60;;;;;;4927150;29;20028;-82
2022/04/13 08:32:29;;;;;;;6.65;1.77;;;18.30;64.50;;;;;;4924488;29;20119;-79
2022/04/13 08:34:55;;;;;;;3.90;1.83;;;18.50;64.50;;;;;;4924001;29;20046;-82
2022/04/13 08:37:22;;;;;;;4.80;1.83;;;18.60;64.40;;;;;;4927147;29;20055;-81
2022/04/13 08:39:51;;;;;;;5.32;1.73;;;18.80;64.50;;;;;;4922641;29;20087;-88
2022/04/13 08:42:32;;;;;;;4.78;1.70;;;18.90;64.30;;;;;;4930756;29;20714;-83
2022/04/13 08:45:21;;;;;;;4.53;2.00;;;19.00;64.10;;;;;;4929484;29;20023;-81
2022/04/13 08:47:49;;;;;;;4.88;1.70;;;19.20;64.10;;;;;;4937873;29;20563;-79
2022/04/13 08:50:15;;;;;;;6.88;2.85;;;19.30;64.10;;;;;;4926250;29;20075;-81
2022/04/13 08:52:41;;;;;;;6.03;2.25;;;19.40;63.90;;;;;;4925453;29;20110;-83
2022/04/13 08:55:09;;;;;;;7.10;2.50;;;19.50;63.90;;;;;;4928281;29;20040;-81
2022/04/13 08:57:41;;;;;;;6.38;2.08;;;19.60;63.80;;;;;;4921629;29;20075;-82
2022/04/13 09:00:15;;;;;;;3.13;1.90;;;19.70;63.60;;;;;;4929207;29;20042;-81
2022/04/13 09:02:47;;;;;;;6.45;2.85;;;19.80;63.60;;;;;;4924432;29;20576;-81
2022/04/13 09:05:19;;;;;;;6.53;2.42;;;20.00;63.70;;;;;;4928306;29;20043;-83
2022/04/13 09:08:09;;;;;;;4.75;2.42;;;20.10;63.60;;;;;;4925304;29;20074;-83
2022/04/13 09:10:36;;;;;;;5.78;2.40;;;20.20;63.50;;;;;;4919069;29;20035;-83
2022/04/13 09:13:02;;;;;;;7.75;2.15;;;20.40;63.60;;;;;;4924488;29;20087;-83
2022/04/13 09:15:28;;;;;;;3.38;1.80;;;20.50;63.90;;;;;;4928968;29;20423;-83
2022/04/13 09:17:54;;;;;;;3.92;1.83;;;20.60;63.30;;;;;;4925998;29;20048;-84
2022/04/13 09:20:21;;;;;;;5.32;2.53;;;20.70;63.30;;;;;;4927311;29;20110;-85
2022/04/13 09:22:49;;;;;;;5.47;1.90;;;20.70;63.10;;;;;;4932154;29;20027;-85
2022/04/13 09:25:17;;;;;;;5.40;1.95;;;20.80;63.10;;;;;;4926906;29;20043;-82
2022/04/13 09:27:44;;;;;;;7.38;2.35;;;20.90;63.10;;;;;;4926934;29;20042;-83
2022/04/13 09:30:12;;;;;;;5.65;2.20;;;21.00;63.00;;;;;;4927384;29;20339;-83
2022/04/13 09:32:38;;;;;;;3.95;1.77;;;21.20;63.00;;;;;;4921641;29;20364;-83
2022/04/13 09:35:05;;;;;;;5.75;2.13;;;21.30;62.80;;;;;;4922584;29;20067;-82
2022/04/13 09:37:31;;;;;;;6.50;2.72;;;21.50;62.70;;;;;;4921650;29;20773;-82
2022/04/13 09:39:59;;;;;;;4.32;1.98;;;21.60;62.50;;;;;;4927077;29;20134;-83
2022/04/13 09:42:27;;;;;;;4.57;1.85;;;21.80;63.00;;;;;;4924528;29;20430;-81
2022/04/13 09:45:00;;;;;;;6.40;2.45;;;21.90;62.30;;;;;;4927037;29;20078;-84
2022/04/13 09:47:31;;;;;;;4.55;1.70;;;22.00;62.10;;;;;;4911019;29;20032;-81
2022/04/13 09:49:57;;;;;;;5.45;2.20;;;22.10;62.10;;;;;;4922776;29;20023;-79
2022/04/13 09:52:54;;;;;;;6.80;2.22;;;22.00;61.70;;;;;;4927360;29;20039;-81
2022/04/13 09:55:22;;;;;;;4.22;2.17;;;21.90;61.30;;;;;;4914191;29;20051;-82
2022/04/13 09:57:48;;;;;;;4.63;1.90;;;21.90;61.70;;;;;;4925594;29;20498;-81
2022/04/13 10:00:14;;;;;;;5.32;1.77;;;21.80;61.60;;;;;;4923309;29;20027;-82
2022/04/13 10:02:42;;;;;;;5.15;2.45;;;21.60;61.30;;;;;;4926676;29;20040;-81
2022/04/13 10:05:14;;;;;;;4.50;1.83;;;21.50;61.20;;;;;;4926488;29;20028;-81
2022/04/13 10:07:41;;;;;;;5.18;2.00;;;21.40;61.20;;;;;;4926674;29;20054;-81
2022/04/13 10:10:23;;;;;;;6.03;1.83;;;21.30;61.20;;;;;;4924575;29;20039;-83
2022/04/13 10:12:52;;;;;;;4.07;1.70;;;21.20;60.90;;;;;;4935211;29;20046;-83
2022/04/13 10:15:18;;;;;;;5.38;1.60;;;21.20;61.20;;;;;;4926013;29;20043;-81
2022/04/13 10:17:44;;;;;;;6.53;1.73;;;21.30;61.20;;;;;;4927164;29;20032;-81
2022/04/13 10:20:11;;;;;;;3.90;1.75;;;21.40;61.10;;;;;;4925376;29;20047;-80
2022/04/13 10:22:59;;;;;;;3.97;1.20;;;21.60;61.00;;;;;;4928536;29;20043;-78
2022/04/13 10:25:26;;;;;;;2.72;1.23;;;21.80;60.70;;;;;;4925164;29;20141;-81
2022/04/13 10:27:55;;;;;;;3.03;1.58;;;22.00;60.80;;;;;;4936359;29;20282;-80
2022/04/13 10:30:35;;;;;;;5.35;1.88;;;22.10;60.60;;;;;;4926269;29;20080;-80
2022/04/13 10:33:06;;;;;;;4.40;1.80;;;22.20;60.30;;;;;;4930547;29;20032;-80
2022/04/13 10:35:35;;;;;;;6.23;1.40;;;22.20;60.20;;;;;;4927255;29;20368;-80
2022/04/13 10:38:03;;;;;;;2.83;1.05;;;22.30;60.10;;;;;;4918835;29;20296;-79
2022/04/13 10:40:31;;;;;;;3.60;1.30;;;22.50;60.20;;;;;;4922116;29;20040;-82
2022/04/13 10:43:03;;;;;;;4.35;1.52;;;22.60;60.20;;;;;;4918873;29;20031;-78
2022/04/13 10:45:33;;;;;;;5.68;1.75;;;22.70;60.00;;;;;;4927609;29;20031;-80
2022/04/13 10:48:11;;;;;;;4.00;1.52;;;22.70;59.80;;;;;;4937916;28;20028;-79
2022/04/13 10:50:57;;;;;;;4.13;1.35;;;22.80;59.70;;;;;;4922026;29;20041;-81
2022/04/13 10:53:56;;;;;;;4.03;1.95;;;22.90;59.50;;;;;;4926953;29;20062;-81
2022/04/13 10:56:27;;;;;;;6.75;1.60;;;22.90;59.20;;;;;;4919986;29;20288;-82
2022/04/13 10:59:06;;;;;;;2.90;1.38;;;22.90;59.30;;;;;;4925728;29;20044;-82
2022/04/13 11:01:43;;;;;;;2.45;0.82;;;22.90;59.20;;;;;;4927107;29;20039;-81
2022/04/13 11:04:11;;;;;;;2.75;1.40;;;23.00;59.30;;;;;;4921551;29;20036;-80
2022/04/13 11:06:43;;;;;;;2.58;1.10;;;23.00;59.30;;;;;;4942097;28;20512;-80
2022/04/13 11:09:36;;;;;;;1.83;0.90;;;23.00;59.20;;;;;;4924877;29;20059;-81
2022/04/13 11:12:03;;;;;;;3.88;0.95;;;23.00;58.80;;;;;;4919639;29;20036;-81
2022/04/13 11:14:29;;;;;;;3.05;1.35;;;23.20;59.10;;;;;;4920208;29;20032;-86
2022/04/13 11:17:08;;;;;;;2.28;1.10;;;23.40;59.10;;;;;;4928148;29;20485;-82
2022/04/13 11:19:34;;;;;;;2.25;1.05;;;23.60;58.70;;;;;;4922449;29;20613;-83
2022/04/13 11:22:02;;;;;;;2.30;1.13;;;23.70;58.70;;;;;;4922812;29;20123;-82
2022/04/13 11:24:36;;;;;;;3.72;1.13;;;23.80;58.50;;;;;;4929373;29;20044;-83
2022/04/13 11:27:04;;;;;;;3.75;1.77;;;23.90;58.20;;;;;;4924538;29;20036;-82
2022/04/13 11:29:44;;;;;;;3.53;1.35;;;24.00;58.30;;;;;;4920982;29;20118;-80
2022/04/13 11:32:14;;;;;;;4.45;1.45;;;24.10;58.10;;;;;;4919575;29;20066;-83
2022/04/13 11:34:58;;;;;;;1.95;1.05;;;24.20;58.00;;;;;;4921431;28;20134;-82
2022/04/13 11:37:43;;;;;;;2.83;1.10;;;24.20;57.60;;;;;;4920741;29;20036;-82
2022/04/13 11:40:32;;;;;;;4.43;1.40;;;24.20;57.50;;;;;;4923705;29;20110;-78
2022/04/13 11:43:04;;;;;;;5.25;2.05;;;24.20;57.70;;;;;;4917610;29;20043;-82
2022/04/13 11:45:31;;;;;;;5.60;1.65;;;24.20;57.60;;;;;;4920960;29;20047;-80
2022/04/13 11:48:00;;;;;;;3.70;1.50;;;24.20;57.60;;;;;;4925820;29;20043;-83
2022/04/13 11:50:33;;;;;;;4.10;1.52;;;24.20;57.50;;;;;;4923759;29;20039;-81
2022/04/13 11:53:06;;;;;;;3.33;1.02;;;24.20;57.40;;;;;;4926657;29;20027;-82
2022/04/13 11:55:37;;;;;;;;;;;24.20;57.30;;;;;;4927481;28;20059;-84
2022/04/13 11:58:09;;;;;;;4.00;1.45;;;24.30;57.60;;;;;;4918428;29;19919;-81
2022/04/13 12:00:39;;;;;;;6.78;2.42;;;24.30;57.50;;;;;;4924011;29;20530;-82
2022/04/13 12:03:16;;;;;;;3.67;1.35;;;24.30;57.40;;;;;;4920569;29;20109;-82
2022/04/13 12:05:56;;;;;;;3.85;1.15;;;24.40;57.30;;;;;;4924875;29;20372;-84
2022/04/13 12:08:35;;;;;;;4.72;1.67;;;24.50;57.30;;;;;;4925986;29;20134;-83
2022/04/13 12:11:04;;;;;;;4.55;1.55;;;24.50;57.10;;;;;;4924366;29;20031;-81
2022/04/13 12:13:34;;;;;;;3.53;1.42;;;24.50;57.10;;;;;;4920404;29;20271;-81
2022/04/13 12:16:01;;;;;;;4.05;1.65;;;24.50;57.00;;;;;;4920945;29;20031;-80
2022/04/13 12:18:29;;;;;;;4.60;1.73;;;24.60;57.10;;;;;;4924712;29;20422;-83
2022/04/13 12:21:08;;;;;;;5.22;1.42;;;24.60;56.90;;;;;;4925916;29;20805;-84
2022/04/13 12:23:36;;;;;;;4.93;1.65;;;24.60;56.60;;;;;;4924843;29;20074;-83
2022/04/13 12:26:02;;;;;;;4.13;1.38;;;24.70;56.80;;;;;;4925201;29;20051;-81
2022/04/13 12:28:31;;;;;;;6.13;1.80;;;24.80;56.80;;;;;;4928498;28;20039;-83
2022/04/13 12:31:08;;;;;;;4.90;1.33;;;24.90;56.80;;;;;;4925141;29;20042;-82
2022/04/13 12:33:39;;;;;;;4.93;1.63;;;25.00;56.70;;;;;;4917285;29;20083;-82
2022/04/13 12:36:06;;;;;;;4.65;1.50;;;25.10;56.60;;;;;;4924804;29;20063;-81
2022/04/13 12:38:36;;;;;;;5.15;1.75;;;25.20;56.60;;;;;;4920231;29;20279;-82
2022/04/13 12:41:17;;;;;;;5.35;1.75;;;25.20;56.30;;;;;;4924275;29;20039;-82
2022/04/13 12:43:49;;;;;;;4.45;1.63;;;25.30;56.10;;;;;;4919468;29;20032;-83
2022/04/13 12:46:17;;;;;;;4.68;1.60;;;25.30;56.10;;;;;;4923032;29;20090;-82
2022/04/13 12:48:52;;;;;;;4.20;1.58;;;25.40;56.00;;;;;;4923049;29;20058;-82
2022/04/13 12:51:19;;;;;;;5.90;1.83;;;25.50;56.00;;;;;;4924758;29;20447;-79
2022/04/13 12:53:53;;;;;;;3.65;1.33;;;25.50;55.80;;;;;;4926329;29;20074;-81